Time;durP1;ratioP1;P1;durP2;ratioP2;P2;SDS_P1;SDS_P2;PMS_P1;PMS_P2;Temp;Humidity;BMP_temperature;BMP_pressure;BME280_temperature;BME280_humidity;BME280_pressure;Samples;Min_cycle;Max_cycle;Signal;HPM_P1;HPM_P2
2024/03/15 00:01:03;;;;;;;7.75;6.18;;;;;;;13.36;76.20;99610.59;10432902;28;20819;-64
2024/03/15 00:06:05;;;;;;;6.75;6.15;;;;;;;13.33;76.57;99602.84;10441458;28;20057;-66
2024/03/15 00:11:07;;;;;;;7.68;6.32;;;;;;;13.29;76.51;99615.69;10426085;28;20514;-66
2024/03/15 00:16:12;;;;;;;6.60;5.87;;;;;;;13.25;76.58;99619.69;10376735;28;20049;-65
2024/03/15 00:21:17;;;;;;;6.75;5.82;;;;;;;13.21;76.80;99616.50;10450568;28;20051;-65
2024/03/15 00:26:19;;;;;;;7.78;5.82;;;;;;;13.15;77.13;99624.28;10438844;28;20044;-65
2024/03/15 00:31:20;;;;;;;6.85;6.15;;;;;;;13.16;77.23;99634.81;10450449;28;20071;-65
2024/03/15 00:36:22;;;;;;;6.57;5.93;;;;;;;13.17;77.54;99624.97;10436393;28;20119;-65
2024/03/15 00:41:24;;;;;;;8.10;6.38;;;;;;;13.09;77.37;99626.59;10443965;28;20063;-66
2024/03/15 00:46:25;;;;;;;7.28;6.32;;;;;;;13.09;77.82;99621.25;10446465;28;20060;-64
2024/03/15 00:51:27;;;;;;;7.45;5.88;;;;;;;13.08;78.33;99619.56;10450336;28;20073;-68
2024/03/15 00:56:29;;;;;;;7.45;5.85;;;;;;;13.09;78.13;99615.06;10448705;28;20083;-64
2024/03/15 01:01:30;;;;;;;6.03;5.43;;;;;;;13.09;78.39;99607.88;10439070;28;20571;-65
2024/03/15 01:06:32;;;;;;;6.50;5.88;;;;;;;13.10;78.99;99606.03;10450232;28;20737;-66
2024/03/15 01:11:33;;;;;;;6.18;5.55;;;;;;;13.06;78.57;99604.66;10444493;28;20615;-65
2024/03/15 01:16:37;;;;;;;7.00;6.30;;;;;;;12.92;78.25;99587.38;10439817;28;20052;-65
2024/03/15 01:21:42;;;;;;;6.78;5.68;;;;;;;12.95;78.77;99596.91;10426129;28;20036;-66
2024/03/15 01:26:44;;;;;;;7.07;5.57;;;;;;;12.81;78.85;99582.28;10429280;28;20143;-64
2024/03/15 01:31:45;;;;;;;6.05;5.43;;;;;;;12.91;79.27;99596.41;10428753;28;20059;-65
2024/03/15 01:36:47;;;;;;;6.28;5.57;;;;;;;12.88;79.42;99596.69;10413448;28;20055;-66
2024/03/15 01:41:49;;;;;;;6.07;5.47;;;;;;;12.87;80.41;99597.69;10437713;28;20131;-65
2024/03/15 01:46:51;;;;;;;6.00;5.13;;;;;;;12.78;81.36;99596.78;10438305;28;20644;-66
2024/03/15 01:51:53;;;;;;;7.35;5.05;;;;;;;12.76;82.10;99588.09;10417481;28;20585;-65
2024/03/15 01:56:55;;;;;;;6.75;5.72;;;;;;;12.79;82.75;99600.28;10440424;28;20094;-65
2024/03/15 02:02:01;;;;;;;5.45;4.95;;;;;;;12.75;83.15;99601.59;10410133;28;20058;-66
2024/03/15 02:07:03;;;;;;;6.18;5.57;;;;;;;12.65;84.23;99588.31;10429042;28;20048;-64
2024/03/15 02:12:06;;;;;;;7.30;6.18;;;;;;;12.70;84.57;99588.69;10433846;28;20077;-65
2024/03/15 02:17:07;;;;;;;6.88;5.32;;;;;;;12.64;84.46;99579.47;10435561;28;20052;-66
2024/03/15 02:22:09;;;;;;;5.57;4.93;;;;;;;12.64;85.11;99587.47;10438693;28;20049;-64
2024/03/15 02:27:13;;;;;;;5.63;5.03;;;;;;;12.57;84.90;99575.72;10435799;28;20129;-66
2024/03/15 02:32:18;;;;;;;7.03;5.20;;;;;;;12.62;85.29;99580.63;10424893;28;20350;-67
2024/03/15 02:37:19;;;;;;;5.40;4.90;;;;;;;12.57;85.98;99578.41;10437731;28;20425;-64
2024/03/15 02:42:21;;;;;;;8.18;5.40;;;;;;;12.54;86.36;99573.38;10436191;28;20090;-65
2024/03/15 02:47:25;;;;;;;5.82;5.32;;;;;;;12.50;86.86;99566.66;10435946;28;20075;-66
2024/03/15 02:52:27;;;;;;;5.90;5.30;;;;;;;12.50;86.97;99574.66;10434937;28;20106;-65
2024/03/15 02:57:31;;;;;;;7.43;6.10;;;;;;;12.49;87.09;99581.84;10394505;28;20058;-65
2024/03/15 03:02:32;;;;;;;6.88;5.75;;;;;;;12.38;87.77;99574.03;10420109;28;20208;-66
2024/03/15 03:07:34;;;;;;;5.93;5.03;;;;;;;12.35;87.99;99577.00;10375962;28;20143;-65
2024/03/15 03:12:35;;;;;;;5.95;5.07;;;;;;;12.34;88.15;99578.84;10437104;28;20056;-65
2024/03/15 03:17:37;;;;;;;6.85;5.88;;;;;;;12.30;88.49;99577.47;10430285;28;20633;-65
2024/03/15 03:22:39;;;;;;;6.82;5.43;;;;;;;12.33;88.35;99590.50;10433202;28;20044;-66
2024/03/15 03:27:40;;;;;;;6.32;5.72;;;;;;;12.32;88.36;99588.00;10445408;28;20129;-65
2024/03/15 03:32:44;;;;;;;5.45;4.95;;;;;;;12.23;89.48;99587.06;10447983;28;20100;-65
2024/03/15 03:37:46;;;;;;;6.15;5.65;;;;;;;12.24;89.27;99579.91;10422002;28;20075;-65
2024/03/15 03:42:47;;;;;;;6.15;5.65;;;;;;;12.28;88.93;99583.94;10422056;28;20657;-65
2024/03/15 03:47:50;;;;;;;6.40;5.00;;;;;;;12.27;89.51;99576.94;10424774;28;20198;-65
2024/03/15 03:52:52;;;;;;;5.97;4.97;;;;;;;12.27;89.67;99569.78;10436473;28;20048;-66
2024/03/15 03:57:55;;;;;;;6.50;5.45;;;;;;;12.23;90.52;99571.06;10422383;28;20040;-65
2024/03/15 04:02:56;;;;;;;5.55;5.03;;;;;;;12.00;91.16;99543.97;10410031;28;20063;-65
2024/03/15 04:07:59;;;;;;;6.30;4.57;;;;;;;12.20;91.14;99593.56;10449614;28;20052;-65
2024/03/15 04:13:01;;;;;;;6.72;5.50;;;;;;;12.23;91.36;99597.75;10445743;28;20553;-64
2024/03/15 04:18:03;;;;;;;6.05;4.88;;;;;;;12.16;92.16;99591.31;10450120;28;20048;-65
2024/03/15 04:23:06;;;;;;;6.17;5.50;;;;;;;12.18;91.80;99587.53;10437428;28;20072;-65
2024/03/15 04:28:08;;;;;;;6.25;4.32;;;;;;;12.22;91.33;99585.41;10439996;28;20053;-65
2024/03/15 04:33:09;;;;;;;5.00;4.55;;;;;;;12.24;91.87;99594.09;10450759;28;20059;-66
2024/03/15 04:38:11;;;;;;;6.75;4.43;;;;;;;12.13;91.57;99579.13;10441662;28;20219;-65
2024/03/15 04:43:13;;;;;;;5.50;5.00;;;;;;;12.15;92.20;99595.00;10415087;28;20088;-64
2024/03/15 04:48:14;;;;;;;8.70;5.30;;;;;;;12.11;92.22;99604.28;10451068;28;20470;-64
2024/03/15 04:53:19;;;;;;;6.40;5.78;;;;;;;12.06;92.25;99601.22;10434546;28;20044;-64
2024/03/15 04:58:26;;;;;;;5.22;4.65;;;;;;;12.05;92.58;99605.72;10431869;28;20664;-65
2024/03/15 05:03:27;;;;;;;5.68;4.82;;;;;;;12.06;92.44;99607.41;10450089;28;20134;-65
2024/03/15 05:08:29;;;;;;;5.53;4.85;;;;;;;12.05;92.66;99611.03;10432799;28;20056;-64
2024/03/15 05:13:31;;;;;;;6.03;5.28;;;;;;;11.97;92.73;99601.13;10443442;28;20063;-65
2024/03/15 05:18:34;;;;;;;5.28;4.65;;;;;;;12.00;92.48;99598.16;10413389;28;20044;-65
2024/03/15 05:23:38;;;;;;;6.47;5.78;;;;;;;12.01;92.40;99607.03;10442591;28;20451;-65
2024/03/15 05:28:42;;;;;;;6.13;5.47;;;;;;;11.93;93.21;99609.56;10418079;28;20135;-64
2024/03/15 05:33:43;;;;;;;7.18;5.35;;;;;;;11.81;93.38;99592.88;10449379;28;20044;-64
2024/03/15 05:38:44;;;;;;;6.30;5.65;;;;;;;11.80;93.70;99602.72;10434112;28;20048;-64
2024/03/15 05:43:46;;;;;;;8.57;6.38;;;;;;;11.74;94.39;99607.78;10446013;28;20254;-64
2024/03/15 05:48:48;;;;;;;5.43;4.72;;;;;;;11.67;94.73;99619.03;10449709;28;20078;-64
2024/03/15 05:53:50;;;;;;;5.78;4.60;;;;;;;11.71;94.75;99632.94;10444492;28;20940;-65
2024/03/15 05:58:51;;;;;;;6.65;5.63;;;;;;;11.68;95.14;99626.06;10444971;28;20677;-65
2024/03/15 06:03:55;;;;;;;7.13;4.97;;;;;;;11.71;95.18;99632.06;10442074;28;20040;-65
2024/03/15 06:08:57;;;;;;;8.57;6.20;;;;;;;11.66;95.67;99640.50;10432732;28;20060;-65
2024/03/15 06:13:59;;;;;;;6.57;5.30;;;;;;;11.70;95.30;99641.09;10423607;28;20048;-65
2024/03/15 06:19:01;;;;;;;5.93;5.25;;;;;;;11.74;94.84;99648.66;10430004;28;20163;-65
2024/03/15 06:24:03;;;;;;;6.65;5.93;;;;;;;11.82;94.56;99650.56;10440450;28;20057;-63
2024/03/15 06:29:05;;;;;;;7.90;5.10;;;;;;;11.96;93.79;99644.78;10437707;28;20488;-64
2024/03/15 06:34:08;;;;;;;6.78;5.25;;;;;;;12.06;92.91;99650.09;10397018;28;20078;-64
2024/03/15 06:39:30;;;;;;;6.57;5.20;;;;;;;12.25;91.72;99653.63;10443189;28;20044;-65
2024/03/15 06:44:45;;;;;;;9.98;6.25;;;;;;;12.31;90.85;99653.03;10441975;28;20552;-65
2024/03/15 06:49:54;;;;;;;6.57;5.78;;;;;;;12.33;90.52;99659.91;10428583;28;20051;-64
2024/03/15 06:54:56;;;;;;;8.63;5.90;;;;;;;12.41;90.48;99669.00;10428840;28;20064;-65
2024/03/15 06:59:58;;;;;;;7.05;5.80;;;;;;;12.47;89.91;99674.56;10364076;28;20942;-65
2024/03/15 07:05:00;;;;;;;6.20;5.28;;;;;;;12.60;89.09;99679.56;10404431;28;20079;-66
2024/03/15 07:10:06;;;;;;;5.70;4.95;;;;;;;12.70;88.46;99675.00;10424181;28;20064;-66
2024/03/15 07:15:11;;;;;;;6.72;4.88;;;;;;;12.67;88.47;99669.09;10385846;28;20049;-64
2024/03/15 07:20:14;;;;;;;7.45;4.47;;;;;;;12.67;88.07;99664.63;10426063;28;20061;-64
2024/03/15 07:25:15;;;;;;;5.50;3.90;;;;;;;12.61;87.28;99665.22;10426802;28;20084;-65
2024/03/15 07:30:19;;;;;;;6.28;4.38;;;;;;;12.68;87.26;99658.25;10411409;28;20402;-63
2024/03/15 07:35:21;;;;;;;5.30;4.18;;;;;;;12.67;87.95;99690.44;10383537;28;20074;-63
2024/03/15 07:40:22;;;;;;;6.70;4.15;;;;;;;12.68;89.76;99692.97;10429351;28;20055;-64
2024/03/15 07:45:24;;;;;;;4.72;4.30;;;;;;;12.66;90.14;99684.28;10400350;28;20044;-63
2024/03/15 07:50:25;;;;;;;4.68;3.90;;;;;;;12.72;89.79;99673.00;10424264;28;20835;-63
2024/03/15 07:55:27;;;;;;;4.25;3.83;;;;;;;12.76;89.41;99688.72;10440502;28;20120;-64
2024/03/15 08:00:29;;;;;;;7.22;4.68;;;;;;;12.77;88.80;99682.38;10443225;28;20059;-65
2024/03/15 08:05:33;;;;;;;8.30;5.70;;;;;;;12.81;88.81;99681.09;10430951;28;20516;-64
2024/03/15 08:10:36;;;;;;;6.88;6.28;;;;;;;12.89;88.36;99690.00;10405476;28;20052;-63
2024/03/15 08:15:37;;;;;;;4.07;3.65;;;;;;;13.00;87.94;99696.97;10442823;28;20052;-63
2024/03/15 08:20:40;;;;;;;5.32;3.85;;;;;;;13.13;87.21;99701.91;10439032;28;20048;-64
2024/03/15 08:25:41;;;;;;;7.43;3.92;;;;;;;13.23;86.53;99709.88;10418498;28;20041;-64
2024/03/15 08:30:45;;;;;;;5.00;3.97;;;;;;;13.23;86.85;99699.19;10449321;28;20439;-65
2024/03/15 08:35:46;;;;;;;5.20;4.10;;;;;;;12.98;85.38;99672.22;10448963;28;20122;-65
2024/03/15 08:40:48;;;;;;;6.68;4.55;;;;;;;12.98;85.97;99701.63;10436914;28;20921;-65
2024/03/15 08:45:49;;;;;;;5.57;3.83;;;;;;;13.08;85.73;99715.75;10419777;28;20044;-63
2024/03/15 08:50:51;;;;;;;4.88;3.88;;;;;;;13.04;85.94;99725.06;10428891;28;20849;-63
2024/03/15 08:55:54;;;;;;;5.32;3.92;;;;;;;13.11;86.17;99721.78;10376290;28;20048;-65
2024/03/15 09:00:56;;;;;;;5.63;4.05;;;;;;;13.22;85.82;99726.88;10447402;28;20079;-65
2024/03/15 09:05:58;;;;;;;7.63;4.13;;;;;;;13.30;85.57;99724.31;10419282;28;20431;-66
2024/03/15 09:11:01;;;;;;;5.88;3.67;;;;;;;13.34;84.44;99736.38;10427319;28;20917;-66
2024/03/15 09:16:05;;;;;;;7.57;4.90;;;;;;;13.34;84.42;99739.06;10438727;28;20594;-65
2024/03/15 09:21:08;;;;;;;4.03;3.20;;;;;;;13.32;83.73;99738.34;10439496;28;20061;-65
2024/03/15 09:26:10;;;;;;;4.30;2.95;;;;;;;13.34;83.99;99736.38;10443520;28;20053;-65
2024/03/15 09:31:14;;;;;;;3.70;3.35;;;;;;;13.33;83.88;99755.22;10436230;28;20135;-72
2024/03/15 09:36:38;;;;;;;5.43;3.22;;;;;;;13.39;83.94;99742.13;10410254;28;20074;-64
2024/03/15 09:41:42;;;;;;;6.50;3.57;;;;;;;13.47;83.95;99751.22;10438607;28;20095;-65
2024/03/15 09:46:43;;;;;;;5.30;3.20;;;;;;;13.55;83.64;99748.59;10440348;28;20044;-65
2024/03/15 09:51:46;;;;;;;5.40;3.17;;;;;;;13.53;83.85;99742.56;10435686;28;21300;-66
2024/03/15 09:56:51;;;;;;;5.60;4.00;;;;;;;13.64;83.67;99736.94;10409692;28;20053;-66
2024/03/15 10:01:52;;;;;;;7.50;4.00;;;;;;;13.56;83.63;99742.25;10412833;28;20153;-65
2024/03/15 10:06:54;;;;;;;4.63;3.05;;;;;;;13.62;84.13;99746.97;10430127;28;20053;-63
2024/03/15 10:11:56;;;;;;;4.35;3.22;;;;;;;13.55;84.67;99740.56;10415470;28;20690;-65
2024/03/15 10:16:59;;;;;;;3.15;2.70;;;;;;;13.51;85.41;99747.19;10437386;28;20056;-65
2024/03/15 10:22:00;;;;;;;7.20;2.97;;;;;;;13.57;86.02;99743.91;10412215;28;20125;-64
2024/03/15 10:27:10;;;;;;;5.70;3.78;;;;;;;13.48;90.06;99752.88;10434043;28;20053;-66
2024/03/15 10:32:11;;;;;;;4.80;3.00;;;;;;;13.47;92.88;99751.22;10396710;28;20044;-63
2024/03/15 10:37:13;;;;;;;5.95;3.50;;;;;;;13.44;95.48;99750.50;10434618;28;20092;-66
2024/03/15 10:42:16;;;;;;;3.92;2.60;;;;;;;13.45;96.25;99751.34;10422009;28;20106;-65
2024/03/15 10:47:18;;;;;;;5.07;2.72;;;;;;;13.35;98.47;99746.09;10434002;28;20705;-64
2024/03/15 10:52:19;;;;;;;2.95;2.70;;;;;;;13.41;100.00;99764.19;10423334;28;20045;-65
2024/03/15 10:57:21;;;;;;;3.55;2.63;;;;;;;13.37;100.00;99757.44;10429046;28;20060;-65
2024/03/15 11:02:24;;;;;;;2.83;2.50;;;;;;;13.47;100.00;99759.22;10412438;28;20049;-63
2024/03/15 11:07:26;;;;;;;2.90;1.85;;;;;;;13.49;100.00;99755.38;10390244;28;20729;-66
2024/03/15 11:12:36;;;;;;;4.47;2.63;;;;;;;13.49;100.00;99755.38;10429776;28;20044;-65
2024/03/15 11:17:38;;;;;;;4.13;2.17;;;;;;;13.49;100.00;99762.56;10442107;28;20049;-64
2024/03/15 11:22:40;;;;;;;3.15;2.25;;;;;;;13.43;100.00;99754.16;10416238;28;20057;-65
2024/03/15 11:27:57;;;;;;;3.63;2.17;;;;;;;13.57;100.00;99759.94;10424920;28;20766;-65
2024/03/15 11:33:00;;;;;;;3.33;2.22;;;;;;;13.69;100.00;99761.41;10427708;28;20037;-65
2024/03/15 11:38:11;;;;;;;2.47;2.25;;;;;;;13.86;100.00;99772.22;10425343;28;20124;-67
2024/03/15 11:43:14;;;;;;;2.67;2.35;;;;;;;13.84;100.00;99747.44;10427442;28;20052;-65
2024/03/15 11:48:18;;;;;;;3.42;2.80;;;;;;;13.94;100.00;99764.25;10449908;28;21117;-65
2024/03/15 11:53:22;;;;;;;3.42;2.70;;;;;;;13.92;100.00;99766.25;10431117;28;20045;-66
2024/03/15 11:58:24;;;;;;;2.35;2.15;;;;;;;13.90;100.00;99765.53;10445753;28;20175;-67
2024/03/15 12:03:30;;;;;;;4.78;3.40;;;;;;;13.80;100.00;99771.00;10447372;28;20054;-66
2024/03/15 12:08:35;;;;;;;3.53;2.20;;;;;;;13.70;100.00;99763.06;10449367;28;20086;-66
2024/03/15 12:13:37;;;;;;;2.88;2.10;;;;;;;13.61;100.00;99767.50;10448792;28;20075;-65
2024/03/15 12:18:38;;;;;;;2.20;2.00;;;;;;;13.62;100.00;99760.34;10414089;28;20063;-66
2024/03/15 12:23:41;;;;;;;3.13;2.40;;;;;;;13.63;100.00;99762.03;10409899;28;20048;-67
2024/03/15 12:28:44;;;;;;;2.33;2.13;;;;;;;13.65;100.00;99748.50;10417966;28;20052;-65
2024/03/15 12:33:46;;;;;;;4.38;2.78;;;;;;;14.02;100.00;99739.38;10432877;28;20056;-64
2024/03/15 12:38:47;;;;;;;7.55;6.75;;;;;;;14.27;100.00;99743.03;10439835;28;20079;-65
2024/03/15 12:43:51;;;;;;;5.15;3.70;;;;;;;14.66;99.63;99734.50;10415066;28;20437;-66
2024/03/15 12:48:52;;;;;;;6.45;5.85;;;;;;;14.75;99.04;99725.47;10450635;28;20045;-66
2024/03/15 12:53:55;;;;;;;5.43;4.78;;;;;;;14.92;98.54;99721.03;10444299;28;20056;-67
2024/03/15 12:58:58;;;;;;;6.82;3.10;;;;;;;14.93;97.47;99708.44;10428393;28;20194;-65
2024/03/15 13:03:59;;;;;;;2.15;1.90;;;;;;;14.77;97.80;99710.09;10418560;28;20110;-66
2024/03/15 13:09:01;;;;;;;2.40;1.80;;;;;;;14.82;98.08;99715.78;10429256;28;20048;-67
2024/03/15 13:14:02;;;;;;;3.40;1.20;;;;;;;14.75;97.41;99711.25;10446388;28;20049;-67
2024/03/15 13:19:06;;;;;;;2.85;1.63;;;;;;;14.66;97.72;99715.75;10431952;28;20055;-66
2024/03/15 13:24:08;;;;;;;2.35;1.50;;;;;;;14.62;97.17;99693.81;10433344;28;20052;-66
2024/03/15 13:29:12;;;;;;;1.65;1.25;;;;;;;14.61;96.19;99676.06;10434017;28;20052;-66
2024/03/15 13:34:14;;;;;;;2.15;1.30;;;;;;;14.84;94.92;99691.50;10428742;28;20054;-67
2024/03/15 13:39:28;;;;;;;2.20;1.50;;;;;;;15.00;93.58;99701.44;10413994;28;20172;-67
2024/03/15 13:44:30;;;;;;;2.00;1.63;;;;;;;14.90;92.64;99695.38;10441023;28;20502;-65
2024/03/15 13:49:32;;;;;;;3.75;1.90;;;;;;;14.85;91.78;99694.03;10421005;28;20178;-65
2024/03/15 13:54:35;;;;;;;2.20;1.90;;;;;;;14.82;88.68;99648.81;10426912;28;20612;-65
2024/03/15 13:59:37;;;;;;;4.72;2.92;;;;;;;15.40;87.02;99688.19;10438532;28;20790;-68
2024/03/15 14:04:39;;;;;;;4.07;2.90;;;;;;;15.60;83.50;99694.88;10412177;28;20052;-66
2024/03/15 14:09:40;;;;;;;2.92;2.60;;;;;;;15.44;82.70;99682.31;10435595;28;20770;-67
2024/03/15 14:14:43;;;;;;;3.47;2.45;;;;;;;15.45;82.67;99684.00;10429575;28;20052;-67
2024/03/15 14:19:45;;;;;;;3.75;2.47;;;;;;;15.52;84.06;99674.28;10443029;28;20049;-66
2024/03/15 14:24:48;;;;;;;4.18;2.78;;;;;;;15.63;83.24;99667.72;10431008;28;20058;-67
2024/03/15 14:29:49;;;;;;;5.45;2.33;;;;;;;15.60;82.29;99661.84;10415463;28;20057;-68
2024/03/15 14:34:51;;;;;;;2.97;2.50;;;;;;;15.45;80.51;99665.22;10441450;28;20058;-66
2024/03/15 14:39:53;;;;;;;3.55;2.30;;;;;;;15.57;79.75;99671.09;10416230;28;20575;-67
2024/03/15 14:44:54;;;;;;;2.47;1.67;;;;;;;15.67;77.59;99660.16;10396100;28;20131;-65
2024/03/15 14:49:56;;;;;;;3.50;1.75;;;;;;;15.78;76.69;99657.16;10405833;28;20072;-67
2024/03/15 14:54:58;;;;;;;3.33;1.58;;;;;;;15.91;75.33;99653.91;10437978;28;20900;-66
2024/03/15 15:00:12;;;;;;;2.47;1.42;;;;;;;16.28;73.84;99640.84;10435472;28;20131;-67
2024/03/15 15:05:15;;;;;;;2.17;1.40;;;;;;;16.53;72.04;99650.47;10390214;28;20199;-68
2024/03/15 15:10:17;;;;;;;2.00;1.37;;;;;;;16.54;71.12;99641.38;10414351;28;20052;-68
2024/03/15 15:15:19;;;;;;;3.70;1.50;;;;;;;16.53;70.48;99644.22;10411571;28;20060;-68
2024/03/15 15:20:27;;;;;;;1.88;1.40;;;;;;;16.38;68.80;99653.06;10436754;28;20055;-65
2024/03/15 15:25:31;;;;;;;1.58;1.30;;;;;;;16.28;69.89;99640.84;10438343;28;20194;-66
2024/03/15 15:30:33;;;;;;;2.50;1.40;;;;;;;16.26;70.53;99655.28;10388817;28;20507;-67
2024/03/15 15:35:35;;;;;;;2.55;1.50;;;;;;;16.20;69.91;99634.50;10428914;28;20135;-66
2024/03/15 15:40:37;;;;;;;1.70;0.90;;;;;;;16.08;70.02;99627.88;10419992;28;20128;-68
2024/03/15 15:45:39;;;;;;;2.17;0.90;;;;;;;16.00;69.60;99609.94;10381933;28;245854;-66
2024/03/15 15:50:48;;;;;;;1.45;0.75;;;;;;;16.03;70.03;99625.72;10432570;28;20996;-67
2024/03/15 15:55:50;;;;;;;2.75;1.00;;;;;;;16.02;70.58;99626.72;10438923;28;20095;-67
2024/03/15 16:00:51;;;;;;;1.88;0.85;;;;;;;15.99;70.77;99643.16;10442840;28;20142;-68
2024/03/15 16:05:56;;;;;;;2.30;0.90;;;;;;;15.97;71.65;99644.34;10408863;28;20098;-67
2024/03/15 16:10:57;;;;;;;;;;;;;;;15.94;72.58;99633.94;10441473;28;20685;-68
2024/03/15 16:16:02;;;;;;;3.10;0.90;;;;;;;15.83;72.73;99632.47;10437241;28;20097;-65
2024/03/15 16:21:04;;;;;;;2.65;1.05;;;;;;;15.67;71.93;99636.00;10410516;28;20072;-67
2024/03/15 16:26:06;;;;;;;2.08;0.68;;;;;;;15.58;72.61;99629.00;10442468;28;20509;-68
2024/03/15 16:31:08;;;;;;;2.38;1.15;;;;;;;15.49;72.64;99615.63;10443066;28;20064;-68
2024/03/15 16:36:10;;;;;;;3.67;1.17;;;;;;;15.47;73.01;99640.91;10438153;28;20111;-68
2024/03/15 16:41:11;;;;;;;3.63;1.30;;;;;;;15.31;72.56;99636.41;10420663;28;20245;-66
2024/03/15 16:46:13;;;;;;;2.35;0.93;;;;;;;15.26;73.21;99649.50;10442562;28;20114;-67
2024/03/15 16:51:15;;;;;;;3.10;1.50;;;;;;;15.21;73.59;99655.38;10429805;28;20051;-67
2024/03/15 16:56:16;;;;;;;2.17;0.90;;;;;;;15.17;74.38;99654.03;10446931;28;20074;-67
2024/03/15 17:01:18;;;;;;;2.33;0.90;;;;;;;15.16;75.14;99657.69;10427161;28;20049;-67
2024/03/15 17:06:19;;;;;;;3.42;1.10;;;;;;;15.09;75.57;99665.59;10434013;28;21421;-67
2024/03/15 17:11:22;;;;;;;2.42;1.40;;;;;;;14.98;75.99;99639.97;10375064;28;20713;-66
2024/03/15 17:16:25;;;;;;;3.67;1.27;;;;;;;15.06;75.86;99671.28;10415312;28;20048;-66
2024/03/15 17:21:27;;;;;;;3.10;1.70;;;;;;;14.95;75.81;99675.13;10452458;28;20298;-67
2024/03/15 17:26:29;;;;;;;3.08;1.55;;;;;;;14.97;76.53;99685.69;10478580;28;20044;-67
2024/03/15 17:31:33;;;;;;;2.15;1.15;;;;;;;14.89;76.21;99677.63;10440054;28;20040;-66
2024/03/15 17:36:34;;;;;;;2.97;1.55;;;;;;;14.97;75.87;99680.31;10428357;28;20652;-67
2024/03/15 17:41:37;;;;;;;3.42;2.30;;;;;;;14.91;75.96;99684.50;10426972;28;20062;-67
2024/03/15 17:46:39;;;;;;;3.33;1.65;;;;;;;14.88;77.10;99692.88;10424660;28;20163;-67
2024/03/15 17:51:43;;;;;;;4.40;1.90;;;;;;;14.80;77.02;99692.84;10445738;28;20041;-65
2024/03/15 17:56:45;;;;;;;2.70;1.40;;;;;;;14.71;77.48;99699.19;10443305;28;20044;-67
2024/03/15 18:01:47;;;;;;;3.33;1.60;;;;;;;14.74;77.83;99712.25;10443412;28;20058;-66
2024/03/15 18:06:48;;;;;;;3.80;1.80;;;;;;;14.72;77.66;99715.09;10425525;28;20056;-68
2024/03/15 18:11:51;;;;;;;2.92;2.00;;;;;;;14.63;77.64;99726.78;10425655;28;20516;-67
2024/03/15 18:16:53;;;;;;;2.92;1.80;;;;;;;14.65;77.89;99712.25;10444033;28;20044;-67
2024/03/15 18:21:54;;;;;;;1.50;0.88;;;;;;;14.52;78.36;99714.50;10437420;28;20083;-65
2024/03/15 18:26:56;;;;;;;4.22;1.40;;;;;;;14.41;79.55;99728.19;10402021;28;20045;-66
2024/03/15 18:31:57;;;;;;;2.92;1.10;;;;;;;14.40;80.77;99740.75;10432642;28;20057;-67
2024/03/15 18:36:59;;;;;;;3.97;1.30;;;;;;;14.35;81.55;99744.88;10445571;28;20056;-68
2024/03/15 18:42:01;;;;;;;3.95;0.90;;;;;;;14.18;82.13;99706.50;10421982;28;20053;-67
2024/03/15 18:47:04;;;;;;;1.98;1.10;;;;;;;14.39;82.49;99743.59;10422729;28;20119;-68
2024/03/15 18:52:06;;;;;;;4.45;1.35;;;;;;;14.33;83.17;99747.72;10406692;28;20160;-67
2024/03/15 18:57:08;;;;;;;4.30;1.70;;;;;;;14.22;84.17;99740.00;10398798;28;20546;-67
2024/03/15 19:02:12;;;;;;;5.47;1.63;;;;;;;14.31;83.74;99739.84;10417287;28;20123;-68
2024/03/15 19:07:15;;;;;;;3.50;1.88;;;;;;;14.39;83.63;99760.47;10421565;28;20129;-68
2024/03/15 19:12:17;;;;;;;3.03;1.92;;;;;;;14.36;84.40;99755.44;10424494;28;20060;-67
2024/03/15 19:17:20;;;;;;;2.78;1.92;;;;;;;14.35;84.87;99759.09;10439103;28;20072;-67
2024/03/15 19:22:21;;;;;;;3.22;1.95;;;;;;;14.37;84.94;99754.44;10437469;28;20052;-66
2024/03/15 19:27:23;;;;;;;2.97;1.92;;;;;;;14.30;85.03;99751.56;10439015;28;20047;-67
2024/03/15 19:32:30;;;;;;;3.55;1.48;;;;;;;14.30;84.79;99756.09;10420468;28;20080;-67
2024/03/15 19:37:32;;;;;;;5.45;2.00;;;;;;;14.15;85.19;99745.97;10433070;28;20577;-68
2024/03/15 19:42:35;;;;;;;2.28;1.17;;;;;;;14.18;85.25;99752.00;10445219;28;20106;-66
2024/03/15 19:47:36;;;;;;;2.75;1.70;;;;;;;14.06;85.18;99735.38;10418987;28;20481;-67
2024/03/15 19:52:39;;;;;;;2.90;1.27;;;;;;;14.04;85.76;99743.56;10416121;28;20530;-67
2024/03/15 19:57:40;;;;;;;2.78;1.23;;;;;;;14.06;86.71;99756.78;10406459;28;20084;-67
2024/03/15 20:02:42;;;;;;;4.15;1.65;;;;;;;13.97;86.31;99769.28;10441240;28;20048;-67
2024/03/15 20:07:43;;;;;;;3.58;1.30;;;;;;;13.92;86.59;99758.22;10444602;28;20090;-69
2024/03/15 20:12:45;;;;;;;2.70;0.98;;;;;;;13.81;87.10;99774.50;10447334;28;20052;-67
2024/03/15 20:17:47;;;;;;;3.28;1.52;;;;;;;13.85;87.30;99779.41;10438464;28;20051;-66
2024/03/15 20:22:49;;;;;;;3.38;1.23;;;;;;;13.72;87.64;99770.94;10433631;28;20056;-68
2024/03/15 20:27:51;;;;;;;2.72;1.20;;;;;;;13.85;87.50;99786.59;10422753;28;20053;-68
2024/03/15 20:32:52;;;;;;;2.78;1.33;;;;;;;13.87;87.44;99779.22;10384127;28;20083;-68
2024/03/15 20:37:54;;;;;;;4.75;1.60;;;;;;;13.88;87.42;99786.28;10448041;28;20040;-67
2024/03/15 20:42:55;;;;;;;3.03;1.48;;;;;;;13.88;87.07;99797.81;10445168;28;20706;-67
2024/03/15 20:47:58;;;;;;;3.90;1.50;;;;;;;13.82;87.07;99802.94;10428967;28;20075;-67
2024/03/15 20:53:01;;;;;;;2.33;1.45;;;;;;;13.79;86.67;99798.75;10444300;28;20053;-67
2024/03/15 20:58:05;;;;;;;3.10;1.05;;;;;;;13.79;86.86;99793.41;10445862;28;20052;-67
2024/03/15 21:03:07;;;;;;;;;;;;;;;13.83;86.50;99801.97;10434985;28;20057;-68
2024/03/15 21:08:08;;;;;;;3.47;1.20;;;;;;;13.81;86.23;99803.94;10431823;28;19971;-68
2024/03/15 21:13:11;;;;;;;1.77;1.05;;;;;;;13.81;86.59;99798.59;10443403;28;20609;-68
2024/03/15 21:18:15;;;;;;;2.00;1.10;;;;;;;13.81;86.55;99801.25;10430815;28;20288;-67
2024/03/15 21:23:16;;;;;;;2.72;1.20;;;;;;;13.85;86.71;99798.13;10437106;28;20756;-67
2024/03/15 21:28:18;;;;;;;1.88;1.23;;;;;;;13.92;87.74;99796.50;10420664;28;20048;-67
2024/03/15 21:33:24;;;;;;;2.30;1.45;;;;;;;13.86;86.61;99809.69;10419043;28;20064;-68
2024/03/15 21:38:27;;;;;;;1.63;1.05;;;;;;;13.75;86.82;99792.88;10427713;28;20056;-67
2024/03/15 21:43:29;;;;;;;2.40;1.42;;;;;;;13.82;86.88;99805.63;10449415;28;20099;-68
2024/03/15 21:48:32;;;;;;;2.67;1.60;;;;;;;13.88;86.12;99815.69;10439626;28;20103;-68
2024/03/15 21:53:33;;;;;;;2.97;1.20;;;;;;;13.83;86.03;99820.69;10444425;28;20159;-67
2024/03/15 21:58:35;;;;;;;3.63;1.40;;;;;;;13.86;85.80;99815.03;10404431;28;20044;-66
2024/03/15 22:03:38;;;;;;;2.72;1.50;;;;;;;13.81;84.66;99817.31;10443591;28;20056;-67
2024/03/15 22:08:40;;;;;;;2.72;0.85;;;;;;;13.79;83.69;99806.78;10422685;28;20065;-69
2024/03/15 22:13:41;;;;;;;2.50;1.30;;;;;;;13.82;83.28;99808.31;10445649;28;20055;-68
2024/03/15 22:18:43;;;;;;;2.33;1.05;;;;;;;13.72;82.10;99805.69;10436706;28;20049;-68
2024/03/15 22:23:44;;;;;;;4.32;1.85;;;;;;;13.71;82.66;99802.19;10437000;28;20103;-68
2024/03/15 22:28:46;;;;;;;2.05;0.80;;;;;;;13.72;82.45;99811.91;10442760;28;20602;-68
2024/03/15 22:33:47;;;;;;;2.38;1.33;;;;;;;13.74;82.26;99809.91;10435055;28;20655;-68
2024/03/15 22:38:52;;;;;;;1.73;0.80;;;;;;;13.76;82.39;99815.09;10403194;28;20048;-68
2024/03/15 22:43:56;;;;;;;3.00;1.27;;;;;;;13.72;83.78;99814.59;10440720;28;20141;-67
2024/03/15 22:48:58;;;;;;;3.38;1.50;;;;;;;13.66;85.57;99815.22;10358577;28;20064;-68
2024/03/15 22:53:59;;;;;;;3.13;1.25;;;;;;;13.59;87.17;99824.84;10430734;28;20642;-68
2024/03/15 22:59:02;;;;;;;2.88;1.30;;;;;;;13.53;88.39;99820.09;10407666;28;20049;-68
2024/03/15 23:04:07;;;;;;;3.53;1.80;;;;;;;13.47;94.44;99828.75;10430770;28;20643;-68
2024/03/15 23:09:09;;;;;;;3.58;1.73;;;;;;;13.42;95.67;99819.34;10430606;28;20056;-68
2024/03/15 23:14:10;;;;;;;2.30;1.80;;;;;;;13.37;96.56;99805.56;10441712;28;20044;-67
2024/03/15 23:19:13;;;;;;;3.92;1.65;;;;;;;13.38;97.60;99795.75;10448801;28;20215;-68
2024/03/15 23:24:15;;;;;;;4.15;2.10;;;;;;;13.27;98.19;99810.16;10445430;28;20048;-69